sensor_id;sensor_type;location;lat;lon;timestamp;P1;durP1;ratioP1;P2;durP2;ratioP2
54743;SDS011;40639;53.170;6.728;2023-03-22T00:00:53;12.35;;;7.13;;
54743;SDS011;40639;53.170;6.728;2023-03-22T00:03:20;10.95;;;6.95;;
54743;SDS011;40639;53.170;6.728;2023-03-22T00:05:46;12.40;;;7.13;;
54743;SDS011;40639;53.170;6.728;2023-03-22T00:08:12;12.70;;;7.22;;
54743;SDS011;40639;53.170;6.728;2023-03-22T00:10:39;12.98;;;7.32;;
54743;SDS011;40639;53.170;6.728;2023-03-22T00:13:05;11.30;;;6.40;;
54743;SDS011;40639;53.170;6.728;2023-03-22T00:15:32;15.32;;;7.15;;
54743;SDS011;40639;53.170;6.728;2023-03-22T00:17:58;11.07;;;5.97;;
54743;SDS011;40639;53.170;6.728;2023-03-22T00:20:26;10.88;;;6.03;;
54743;SDS011;40639;53.170;6.728;2023-03-22T00:22:57;17.65;;;5.75;;
54743;SDS011;40639;53.170;6.728;2023-03-22T00:25:23;14.07;;;5.63;;
54743;SDS011;40639;53.170;6.728;2023-03-22T00:27:50;9.98;;;5.75;;
54743;SDS011;40639;53.170;6.728;2023-03-22T00:30:16;11.40;;;5.10;;
54743;SDS011;40639;53.170;6.728;2023-03-22T00:32:43;13.50;;;5.15;;
54743;SDS011;40639;53.170;6.728;2023-03-22T00:35:09;10.65;;;5.30;;
54743;SDS011;40639;53.170;6.728;2023-03-22T00:37:36;13.93;;;5.25;;
54743;SDS011;40639;53.170;6.728;2023-03-22T00:40:07;10.95;;;4.72;;
54743;SDS011;40639;53.170;6.728;2023-03-22T00:42:37;9.52;;;4.85;;
54743;SDS011;40639;53.170;6.728;2023-03-22T00:45:03;10.52;;;4.70;;
54743;SDS011;40639;53.170;6.728;2023-03-22T00:47:30;8.15;;;4.53;;
54743;SDS011;40639;53.170;6.728;2023-03-22T00:49:56;11.93;;;5.13;;
54743;SDS011;40639;53.170;6.728;2023-03-22T00:52:22;11.02;;;4.47;;
54743;SDS011;40639;53.170;6.728;2023-03-22T00:54:49;11.80;;;5.22;;
54743;SDS011;40639;53.170;6.728;2023-03-22T00:57:15;15.07;;;5.15;;
54743;SDS011;40639;53.170;6.728;2023-03-22T00:59:42;10.05;;;4.30;;
54743;SDS011;40639;53.170;6.728;2023-03-22T01:02:08;10.32;;;4.53;;
54743;SDS011;40639;53.170;6.728;2023-03-22T01:04:38;8.77;;;4.50;;
54743;SDS011;40639;53.170;6.728;2023-03-22T01:07:14;8.45;;;4.03;;
54743;SDS011;40639;53.170;6.728;2023-03-22T01:09:49;9.90;;;4.35;;
54743;SDS011;40639;53.170;6.728;2023-03-22T01:12:15;9.75;;;4.57;;
54743;SDS011;40639;53.170;6.728;2023-03-22T01:14:42;8.95;;;4.80;;
54743;SDS011;40639;53.170;6.728;2023-03-22T01:17:08;8.57;;;4.60;;
54743;SDS011;40639;53.170;6.728;2023-03-22T01:19:35;11.05;;;4.55;;
54743;SDS011;40639;53.170;6.728;2023-03-22T01:22:02;12.00;;;4.22;;
54743;SDS011;40639;53.170;6.728;2023-03-22T01:24:28;9.93;;;4.25;;
54743;SDS011;40639;53.170;6.728;2023-03-22T01:26:55;8.35;;;3.80;;
54743;SDS011;40639;53.170;6.728;2023-03-22T01:29:21;9.30;;;3.90;;
54743;SDS011;40639;53.170;6.728;2023-03-22T01:31:47;7.55;;;3.65;;
54743;SDS011;40639;53.170;6.728;2023-03-22T01:34:14;7.57;;;4.03;;
54743;SDS011;40639;53.170;6.728;2023-03-22T01:36:40;8.35;;;3.70;;
54743;SDS011;40639;53.170;6.728;2023-03-22T01:39:06;10.10;;;3.78;;
54743;SDS011;40639;53.170;6.728;2023-03-22T01:41:32;10.45;;;3.72;;
54743;SDS011;40639;53.170;6.728;2023-03-22T01:44:18;8.52;;;3.03;;
54743;SDS011;40639;53.170;6.728;2023-03-22T01:46:45;8.20;;;3.45;;
54743;SDS011;40639;53.170;6.728;2023-03-22T01:49:25;9.63;;;3.15;;
54743;SDS011;40639;53.170;6.728;2023-03-22T01:51:53;8.48;;;3.03;;
54743;SDS011;40639;53.170;6.728;2023-03-22T01:54:25;6.07;;;2.78;;
54743;SDS011;40639;53.170;6.728;2023-03-22T01:56:55;8.98;;;2.72;;
54743;SDS011;40639;53.170;6.728;2023-03-22T01:59:21;6.43;;;3.25;;
54743;SDS011;40639;53.170;6.728;2023-03-22T02:01:48;6.88;;;2.58;;
54743;SDS011;40639;53.170;6.728;2023-03-22T02:04:15;7.45;;;2.53;;
54743;SDS011;40639;53.170;6.728;2023-03-22T02:06:44;9.48;;;3.63;;
54743;SDS011;40639;53.170;6.728;2023-03-22T02:09:12;10.40;;;2.67;;
54743;SDS011;40639;53.170;6.728;2023-03-22T02:11:41;9.95;;;2.70;;
54743;SDS011;40639;53.170;6.728;2023-03-22T02:43:09;9.32;;;1.83;;
54743;SDS011;40639;53.170;6.728;2023-03-22T02:45:45;8.85;;;2.15;;
54743;SDS011;40639;53.170;6.728;2023-03-22T02:48:13;6.78;;;2.10;;
54743;SDS011;40639;53.170;6.728;2023-03-22T02:53:16;8.90;;;2.30;;
54743;SDS011;40639;53.170;6.728;2023-03-22T02:55:54;6.50;;;2.22;;
54743;SDS011;40639;53.170;6.728;2023-03-22T02:58:23;7.22;;;1.73;;
54743;SDS011;40639;53.170;6.728;2023-03-22T03:00:52;4.55;;;1.83;;
54743;SDS011;40639;53.170;6.728;2023-03-22T03:03:20;3.80;;;1.70;;
54743;SDS011;40639;53.170;6.728;2023-03-22T03:05:51;3.95;;;1.50;;
54743;SDS011;40639;53.170;6.728;2023-03-22T03:08:19;7.55;;;2.13;;
54743;SDS011;40639;53.170;6.728;2023-03-22T03:10:46;7.35;;;1.77;;
54743;SDS011;40639;53.170;6.728;2023-03-22T03:13:14;7.35;;;1.58;;
54743;SDS011;40639;53.170;6.728;2023-03-22T03:15:40;9.48;;;2.15;;
54743;SDS011;40639;53.170;6.728;2023-03-22T03:23:18;6.60;;;1.52;;
54743;SDS011;40639;53.170;6.728;2023-03-22T03:33:31;6.28;;;2.03;;
54743;SDS011;40639;53.170;6.728;2023-03-22T03:35:59;5.53;;;1.70;;
54743;SDS011;40639;53.170;6.728;2023-03-22T03:38:28;4.93;;;1.67;;
54743;SDS011;40639;53.170;6.728;2023-03-22T03:40:56;7.45;;;1.67;;
54743;SDS011;40639;53.170;6.728;2023-03-22T03:43:23;6.65;;;1.65;;
54743;SDS011;40639;53.170;6.728;2023-03-22T03:45:50;8.52;;;2.03;;
54743;SDS011;40639;53.170;6.728;2023-03-22T03:48:20;4.85;;;1.63;;
54743;SDS011;40639;53.170;6.728;2023-03-22T03:50:47;7.75;;;1.88;;
54743;SDS011;40639;53.170;6.728;2023-03-22T03:53:15;5.53;;;2.03;;
54743;SDS011;40639;53.170;6.728;2023-03-22T03:55:41;9.98;;;2.03;;
54743;SDS011;40639;53.170;6.728;2023-03-22T03:58:07;7.30;;;1.92;;
54743;SDS011;40639;53.170;6.728;2023-03-22T04:00:34;8.00;;;2.08;;
54743;SDS011;40639;53.170;6.728;2023-03-22T04:03:00;6.93;;;2.10;;
54743;SDS011;40639;53.170;6.728;2023-03-22T04:05:26;8.57;;;2.50;;
54743;SDS011;40639;53.170;6.728;2023-03-22T04:07:53;7.95;;;2.25;;
54743;SDS011;40639;53.170;6.728;2023-03-22T04:10:19;5.13;;;2.25;;
54743;SDS011;40639;53.170;6.728;2023-03-22T04:12:45;7.25;;;2.28;;
54743;SDS011;40639;53.170;6.728;2023-03-22T04:15:11;7.90;;;2.40;;
54743;SDS011;40639;53.170;6.728;2023-03-22T04:17:38;7.72;;;2.40;;
54743;SDS011;40639;53.170;6.728;2023-03-22T04:20:05;8.02;;;2.20;;
54743;SDS011;40639;53.170;6.728;2023-03-22T04:22:33;8.25;;;2.30;;
54743;SDS011;40639;53.170;6.728;2023-03-22T04:25:02;9.10;;;2.95;;
54743;SDS011;40639;53.170;6.728;2023-03-22T04:27:29;7.38;;;2.20;;
54743;SDS011;40639;53.170;6.728;2023-03-22T04:29:55;7.22;;;2.58;;
54743;SDS011;40639;53.170;6.728;2023-03-22T04:32:22;6.95;;;2.42;;
54743;SDS011;40639;53.170;6.728;2023-03-22T04:34:49;9.13;;;2.63;;
54743;SDS011;40639;53.170;6.728;2023-03-22T04:37:15;7.55;;;2.38;;
54743;SDS011;40639;53.170;6.728;2023-03-22T04:39:43;7.40;;;2.42;;
54743;SDS011;40639;53.170;6.728;2023-03-22T04:42:09;6.78;;;2.30;;
54743;SDS011;40639;53.170;6.728;2023-03-22T04:44:35;6.68;;;2.30;;
54743;SDS011;40639;53.170;6.728;2023-03-22T04:47:01;8.43;;;2.55;;
54743;SDS011;40639;53.170;6.728;2023-03-22T04:49:27;8.88;;;3.10;;
54743;SDS011;40639;53.170;6.728;2023-03-22T04:51:54;6.75;;;2.83;;
54743;SDS011;40639;53.170;6.728;2023-03-22T04:54:21;10.10;;;3.72;;
54743;SDS011;40639;53.170;6.728;2023-03-22T04:56:47;8.98;;;3.92;;
54743;SDS011;40639;53.170;6.728;2023-03-22T04:59:13;10.95;;;4.05;;
54743;SDS011;40639;53.170;6.728;2023-03-22T05:01:44;7.90;;;3.53;;
54743;SDS011;40639;53.170;6.728;2023-03-22T05:04:10;8.60;;;4.35;;
54743;SDS011;40639;53.170;6.728;2023-03-22T05:06:36;11.07;;;3.97;;
54743;SDS011;40639;53.170;6.728;2023-03-22T05:09:02;10.57;;;4.47;;
54743;SDS011;40639;53.170;6.728;2023-03-22T05:11:29;8.63;;;4.05;;
54743;SDS011;40639;53.170;6.728;2023-03-22T05:13:55;9.77;;;4.43;;
54743;SDS011;40639;53.170;6.728;2023-03-22T05:16:22;13.02;;;5.63;;
54743;SDS011;40639;53.170;6.728;2023-03-22T05:18:48;11.68;;;4.65;;
54743;SDS011;40639;53.170;6.728;2023-03-22T05:21:19;12.93;;;5.07;;
54743;SDS011;40639;53.170;6.728;2023-03-22T05:23:46;10.32;;;5.55;;
54743;SDS011;40639;53.170;6.728;2023-03-22T05:26:16;11.18;;;5.15;;
54743;SDS011;40639;53.170;6.728;2023-03-22T05:28:44;10.55;;;5.20;;
54743;SDS011;40639;53.170;6.728;2023-03-22T05:31:10;10.80;;;5.70;;
54743;SDS011;40639;53.170;6.728;2023-03-22T05:33:38;13.15;;;6.00;;
54743;SDS011;40639;53.170;6.728;2023-03-22T05:36:06;11.52;;;6.28;;
54743;SDS011;40639;53.170;6.728;2023-03-22T05:38:32;11.52;;;6.07;;
54743;SDS011;40639;53.170;6.728;2023-03-22T05:40:58;11.52;;;5.88;;
54743;SDS011;40639;53.170;6.728;2023-03-22T05:43:24;15.93;;;7.35;;
54743;SDS011;40639;53.170;6.728;2023-03-22T05:45:50;14.95;;;7.03;;
54743;SDS011;40639;53.170;6.728;2023-03-22T05:48:17;13.48;;;7.15;;
54743;SDS011;40639;53.170;6.728;2023-03-22T05:50:43;15.48;;;7.25;;
54743;SDS011;40639;53.170;6.728;2023-03-22T05:53:09;13.88;;;6.95;;
54743;SDS011;40639;53.170;6.728;2023-03-22T05:55:36;12.90;;;7.28;;
54743;SDS011;40639;53.170;6.728;2023-03-22T05:58:02;13.63;;;7.30;;
54743;SDS011;40639;53.170;6.728;2023-03-22T06:00:29;12.95;;;7.18;;
54743;SDS011;40639;53.170;6.728;2023-03-22T06:02:59;11.88;;;7.03;;
54743;SDS011;40639;53.170;6.728;2023-03-22T06:05:30;13.57;;;6.97;;
54743;SDS011;40639;53.170;6.728;2023-03-22T06:07:57;13.70;;;7.40;;
54743;SDS011;40639;53.170;6.728;2023-03-22T06:10:23;17.70;;;7.30;;
54743;SDS011;40639;53.170;6.728;2023-03-22T06:12:51;15.27;;;8.30;;
54743;SDS011;40639;53.170;6.728;2023-03-22T06:15:17;13.90;;;7.53;;
54743;SDS011;40639;53.170;6.728;2023-03-22T06:17:44;13.05;;;7.10;;
54743;SDS011;40639;53.170;6.728;2023-03-22T06:20:10;14.05;;;7.68;;
54743;SDS011;40639;53.170;6.728;2023-03-22T06:22:37;12.32;;;7.28;;
54743;SDS011;40639;53.170;6.728;2023-03-22T06:25:04;12.40;;;7.75;;
54743;SDS011;40639;53.170;6.728;2023-03-22T06:27:31;11.75;;;7.00;;
54743;SDS011;40639;53.170;6.728;2023-03-22T06:29:57;14.88;;;7.78;;
54743;SDS011;40639;53.170;6.728;2023-03-22T06:32:23;13.65;;;7.35;;
54743;SDS011;40639;53.170;6.728;2023-03-22T06:34:53;12.30;;;7.10;;
54743;SDS011;40639;53.170;6.728;2023-03-22T06:37:20;13.32;;;7.43;;
54743;SDS011;40639;53.170;6.728;2023-03-22T06:39:46;15.60;;;7.68;;
54743;SDS011;40639;53.170;6.728;2023-03-22T06:42:12;14.68;;;7.70;;
54743;SDS011;40639;53.170;6.728;2023-03-22T06:44:38;13.10;;;7.18;;
54743;SDS011;40639;53.170;6.728;2023-03-22T06:47:08;12.93;;;7.28;;
54743;SDS011;40639;53.170;6.728;2023-03-22T06:49:34;15.75;;;7.20;;
54743;SDS011;40639;53.170;6.728;2023-03-22T06:52:00;15.00;;;7.82;;
54743;SDS011;40639;53.170;6.728;2023-03-22T06:54:27;13.48;;;7.07;;
54743;SDS011;40639;53.170;6.728;2023-03-22T06:56:53;13.35;;;7.65;;
54743;SDS011;40639;53.170;6.728;2023-03-22T06:59:20;15.40;;;7.60;;
54743;SDS011;40639;53.170;6.728;2023-03-22T07:01:46;14.73;;;8.05;;
54743;SDS011;40639;53.170;6.728;2023-03-22T07:04:12;14.50;;;7.78;;
54743;SDS011;40639;53.170;6.728;2023-03-22T07:06:38;13.50;;;7.50;;
54743;SDS011;40639;53.170;6.728;2023-03-22T07:09:05;18.02;;;8.00;;
54743;SDS011;40639;53.170;6.728;2023-03-22T07:11:31;11.18;;;6.25;;
54743;SDS011;40639;53.170;6.728;2023-03-22T07:13:57;12.25;;;6.88;;
54743;SDS011;40639;53.170;6.728;2023-03-22T07:16:23;13.43;;;7.55;;
54743;SDS011;40639;53.170;6.728;2023-03-22T07:18:49;12.63;;;7.20;;
54743;SDS011;40639;53.170;6.728;2023-03-22T07:21:15;11.63;;;6.85;;
54743;SDS011;40639;53.170;6.728;2023-03-22T07:23:42;13.07;;;7.45;;
54743;SDS011;40639;53.170;6.728;2023-03-22T07:26:08;12.30;;;7.07;;
54743;SDS011;40639;53.170;6.728;2023-03-22T07:28:34;14.15;;;7.13;;
54743;SDS011;40639;53.170;6.728;2023-03-22T07:31:04;15.43;;;8.18;;
54743;SDS011;40639;53.170;6.728;2023-03-22T07:33:31;16.70;;;7.25;;
54743;SDS011;40639;53.170;6.728;2023-03-22T07:35:58;11.05;;;6.90;;
54743;SDS011;40639;53.170;6.728;2023-03-22T07:38:24;13.70;;;6.93;;
54743;SDS011;40639;53.170;6.728;2023-03-22T07:40:51;11.55;;;6.43;;
54743;SDS011;40639;53.170;6.728;2023-03-22T07:43:19;10.15;;;6.40;;
54743;SDS011;40639;53.170;6.728;2023-03-22T07:45:45;11.18;;;6.38;;
54743;SDS011;40639;53.170;6.728;2023-03-22T07:48:11;13.10;;;6.53;;
54743;SDS011;40639;53.170;6.728;2023-03-22T07:50:37;12.98;;;6.20;;
54743;SDS011;40639;53.170;6.728;2023-03-22T07:53:04;10.63;;;6.38;;
54743;SDS011;40639;53.170;6.728;2023-03-22T07:55:30;11.65;;;6.78;;
54743;SDS011;40639;53.170;6.728;2023-03-22T07:57:56;12.20;;;6.13;;
54743;SDS011;40639;53.170;6.728;2023-03-22T08:00:22;11.45;;;6.00;;
54743;SDS011;40639;53.170;6.728;2023-03-22T08:02:48;10.38;;;5.75;;
54743;SDS011;40639;53.170;6.728;2023-03-22T08:05:15;13.07;;;5.65;;
54743;SDS011;40639;53.170;6.728;2023-03-22T08:07:41;15.13;;;5.82;;
54743;SDS011;40639;53.170;6.728;2023-03-22T08:10:07;11.60;;;5.20;;
54743;SDS011;40639;53.170;6.728;2023-03-22T08:12:34;8.63;;;5.50;;
54743;SDS011;40639;53.170;6.728;2023-03-22T08:15:00;11.50;;;5.72;;
54743;SDS011;40639;53.170;6.728;2023-03-22T08:17:27;16.20;;;6.18;;
54743;SDS011;40639;53.170;6.728;2023-03-22T08:19:54;11.65;;;4.82;;
54743;SDS011;40639;53.170;6.728;2023-03-22T08:22:21;11.02;;;5.88;;
54743;SDS011;40639;53.170;6.728;2023-03-22T08:24:50;8.00;;;4.43;;
54743;SDS011;40639;53.170;6.728;2023-03-22T08:27:16;9.73;;;5.15;;
54743;SDS011;40639;53.170;6.728;2023-03-22T08:29:43;10.68;;;4.90;;
54743;SDS011;40639;53.170;6.728;2023-03-22T08:32:10;8.45;;;4.55;;
54743;SDS011;40639;53.170;6.728;2023-03-22T08:34:37;11.32;;;5.03;;
54743;SDS011;40639;53.170;6.728;2023-03-22T08:37:04;9.70;;;5.05;;
54743;SDS011;40639;53.170;6.728;2023-03-22T08:39:31;10.93;;;4.55;;
54743;SDS011;40639;53.170;6.728;2023-03-22T08:41:57;8.85;;;4.45;;
54743;SDS011;40639;53.170;6.728;2023-03-22T08:44:23;9.45;;;4.00;;
54743;SDS011;40639;53.170;6.728;2023-03-22T08:46:50;11.27;;;4.45;;
54743;SDS011;40639;53.170;6.728;2023-03-22T08:49:16;9.18;;;4.63;;
54743;SDS011;40639;53.170;6.728;2023-03-22T08:51:43;11.65;;;4.72;;
54743;SDS011;40639;53.170;6.728;2023-03-22T08:54:09;10.73;;;4.18;;
54743;SDS011;40639;53.170;6.728;2023-03-22T08:56:35;7.35;;;3.95;;
54743;SDS011;40639;53.170;6.728;2023-03-22T08:59:03;8.50;;;4.05;;
54743;SDS011;40639;53.170;6.728;2023-03-22T09:01:29;8.50;;;3.80;;
54743;SDS011;40639;53.170;6.728;2023-03-22T09:03:55;9.70;;;4.05;;
54743;SDS011;40639;53.170;6.728;2023-03-22T09:06:22;10.75;;;4.30;;
54743;SDS011;40639;53.170;6.728;2023-03-22T09:08:50;9.82;;;3.88;;
54743;SDS011;40639;53.170;6.728;2023-03-22T09:11:16;9.50;;;3.65;;
54743;SDS011;40639;53.170;6.728;2023-03-22T09:13:42;11.00;;;4.38;;
54743;SDS011;40639;53.170;6.728;2023-03-22T09:16:09;9.90;;;3.97;;
54743;SDS011;40639;53.170;6.728;2023-03-22T09:18:36;14.43;;;4.20;;
54743;SDS011;40639;53.170;6.728;2023-03-22T09:21:02;9.10;;;3.22;;
54743;SDS011;40639;53.170;6.728;2023-03-22T09:23:35;11.30;;;3.55;;
54743;SDS011;40639;53.170;6.728;2023-03-22T09:26:03;6.70;;;3.97;;
54743;SDS011;40639;53.170;6.728;2023-03-22T09:28:29;9.27;;;3.88;;
54743;SDS011;40639;53.170;6.728;2023-03-22T09:31:03;9.52;;;4.45;;
54743;SDS011;40639;53.170;6.728;2023-03-22T09:33:30;8.98;;;3.72;;
54743;SDS011;40639;53.170;6.728;2023-03-22T09:35:56;7.88;;;3.25;;
54743;SDS011;40639;53.170;6.728;2023-03-22T09:38:23;9.77;;;3.65;;
54743;SDS011;40639;53.170;6.728;2023-03-22T09:40:55;6.13;;;3.40;;
54743;SDS011;40639;53.170;6.728;2023-03-22T09:43:35;7.32;;;3.30;;
54743;SDS011;40639;53.170;6.728;2023-03-22T09:46:04;12.38;;;3.80;;
54743;SDS011;40639;53.170;6.728;2023-03-22T09:48:35;6.45;;;2.88;;
54743;SDS011;40639;53.170;6.728;2023-03-22T09:51:03;6.50;;;3.20;;
54743;SDS011;40639;53.170;6.728;2023-03-22T09:53:30;7.10;;;3.58;;
54743;SDS011;40639;53.170;6.728;2023-03-22T10:05:56;9.40;;;3.65;;
54743;SDS011;40639;53.170;6.728;2023-03-22T10:08:27;10.07;;;3.50;;
54743;SDS011;40639;53.170;6.728;2023-03-22T10:10:55;5.40;;;2.75;;
54743;SDS011;40639;53.170;6.728;2023-03-22T10:18:19;8.25;;;3.67;;
54743;SDS011;40639;53.170;6.728;2023-03-22T10:26:12;6.78;;;2.80;;
54743;SDS011;40639;53.170;6.728;2023-03-22T10:28:43;4.45;;;2.70;;
54743;SDS011;40639;53.170;6.728;2023-03-22T10:31:14;8.40;;;3.58;;
54743;SDS011;40639;53.170;6.728;2023-03-22T10:33:57;8.13;;;3.15;;
54743;SDS011;40639;53.170;6.728;2023-03-22T10:36:25;9.05;;;3.50;;
54743;SDS011;40639;53.170;6.728;2023-03-22T10:38:53;6.10;;;3.25;;
54743;SDS011;40639;53.170;6.728;2023-03-22T10:41:21;5.05;;;2.85;;
54743;SDS011;40639;53.170;6.728;2023-03-22T10:43:51;6.95;;;3.42;;
54743;SDS011;40639;53.170;6.728;2023-03-22T10:46:18;9.80;;;3.60;;
54743;SDS011;40639;53.170;6.728;2023-03-22T10:48:46;12.65;;;3.70;;
54743;SDS011;40639;53.170;6.728;2023-03-22T10:51:25;9.05;;;3.33;;
54743;SDS011;40639;53.170;6.728;2023-03-22T10:53:53;9.27;;;3.67;;
54743;SDS011;40639;53.170;6.728;2023-03-22T10:56:22;10.25;;;3.30;;
54743;SDS011;40639;53.170;6.728;2023-03-22T10:58:49;8.52;;;3.70;;
54743;SDS011;40639;53.170;6.728;2023-03-22T11:01:25;7.95;;;3.45;;
54743;SDS011;40639;53.170;6.728;2023-03-22T11:03:53;6.10;;;2.85;;
54743;SDS011;40639;53.170;6.728;2023-03-22T11:06:27;7.78;;;3.42;;
54743;SDS011;40639;53.170;6.728;2023-03-22T11:09:00;7.72;;;3.05;;
54743;SDS011;40639;53.170;6.728;2023-03-22T11:11:34;6.47;;;3.47;;
54743;SDS011;40639;53.170;6.728;2023-03-22T11:16:27;8.52;;;3.20;;
54743;SDS011;40639;53.170;6.728;2023-03-22T11:18:55;10.75;;;3.80;;
54743;SDS011;40639;53.170;6.728;2023-03-22T11:21:23;6.47;;;3.08;;
54743;SDS011;40639;53.170;6.728;2023-03-22T11:23:53;8.48;;;3.38;;
54743;SDS011;40639;53.170;6.728;2023-03-22T11:26:24;8.75;;;3.28;;
54743;SDS011;40639;53.170;6.728;2023-03-22T11:28:50;8.13;;;3.50;;
54743;SDS011;40639;53.170;6.728;2023-03-22T11:31:18;4.97;;;2.80;;
54743;SDS011;40639;53.170;6.728;2023-03-22T11:34:13;5.80;;;2.97;;
54743;SDS011;40639;53.170;6.728;2023-03-22T11:36:30;8.23;;;3.67;;
54743;SDS011;40639;53.170;6.728;2023-03-22T11:39:06;4.93;;;2.53;;
54743;SDS011;40639;53.170;6.728;2023-03-22T11:41:36;6.18;;;2.90;;
54743;SDS011;40639;53.170;6.728;2023-03-22T11:44:05;7.07;;;3.03;;
54743;SDS011;40639;53.170;6.728;2023-03-22T11:46:33;5.13;;;2.95;;
54743;SDS011;40639;53.170;6.728;2023-03-22T11:49:00;5.57;;;2.70;;
54743;SDS011;40639;53.170;6.728;2023-03-22T11:51:28;4.35;;;2.67;;
54743;SDS011;40639;53.170;6.728;2023-03-22T11:54:02;7.18;;;2.83;;
54743;SDS011;40639;53.170;6.728;2023-03-22T11:56:31;6.05;;;2.85;;
54743;SDS011;40639;53.170;6.728;2023-03-22T11:59:10;6.20;;;3.28;;
54743;SDS011;40639;53.170;6.728;2023-03-22T12:01:39;5.93;;;2.70;;
54743;SDS011;40639;53.170;6.728;2023-03-22T12:04:08;6.55;;;2.83;;
54743;SDS011;40639;53.170;6.728;2023-03-22T12:06:37;9.20;;;3.10;;
54743;SDS011;40639;53.170;6.728;2023-03-22T12:09:38;7.28;;;2.80;;
54743;SDS011;40639;53.170;6.728;2023-03-22T12:11:58;4.90;;;2.58;;
54743;SDS011;40639;53.170;6.728;2023-03-22T12:15:09;6.13;;;2.67;;
54743;SDS011;40639;53.170;6.728;2023-03-22T12:22:42;5.80;;;2.20;;
54743;SDS011;40639;53.170;6.728;2023-03-22T12:25:15;6.20;;;2.90;;
54743;SDS011;40639;53.170;6.728;2023-03-22T12:27:43;6.78;;;2.55;;
54743;SDS011;40639;53.170;6.728;2023-03-22T12:30:20;6.25;;;2.28;;
54743;SDS011;40639;53.170;6.728;2023-03-22T12:33:01;4.68;;;2.40;;
54743;SDS011;40639;53.170;6.728;2023-03-22T12:35:31;5.72;;;2.83;;
54743;SDS011;40639;53.170;6.728;2023-03-22T12:37:58;6.10;;;2.58;;
54743;SDS011;40639;53.170;6.728;2023-03-22T12:40:27;3.97;;;2.60;;
54743;SDS011;40639;53.170;6.728;2023-03-22T12:43:13;8.70;;;2.70;;
54743;SDS011;40639;53.170;6.728;2023-03-22T12:50:35;6.97;;;3.58;;
54743;SDS011;40639;53.170;6.728;2023-03-22T12:53:02;6.53;;;3.05;;
54743;SDS011;40639;53.170;6.728;2023-03-22T12:55:31;7.30;;;3.28;;
54743;SDS011;40639;53.170;6.728;2023-03-22T12:57:58;8.32;;;3.75;;
54743;SDS011;40639;53.170;6.728;2023-03-22T13:00:25;6.70;;;3.60;;
54743;SDS011;40639;53.170;6.728;2023-03-22T13:02:55;9.55;;;3.60;;
54743;SDS011;40639;53.170;6.728;2023-03-22T13:05:25;8.90;;;3.53;;
54743;SDS011;40639;53.170;6.728;2023-03-22T13:07:52;9.02;;;3.97;;
54743;SDS011;40639;53.170;6.728;2023-03-22T13:13:07;6.28;;;3.10;;
54743;SDS011;40639;53.170;6.728;2023-03-22T13:15:34;10.10;;;4.05;;
54743;SDS011;40639;53.170;6.728;2023-03-22T13:18:00;8.50;;;3.80;;
54743;SDS011;40639;53.170;6.728;2023-03-22T13:20:28;8.85;;;3.72;;
54743;SDS011;40639;53.170;6.728;2023-03-22T13:25:57;6.15;;;3.70;;
54743;SDS011;40639;53.170;6.728;2023-03-22T13:28:22;10.30;;;4.18;;
54743;SDS011;40639;53.170;6.728;2023-03-22T13:30:51;11.20;;;3.90;;
54743;SDS011;40639;53.170;6.728;2023-03-22T13:33:18;7.88;;;3.80;;
54743;SDS011;40639;53.170;6.728;2023-03-22T13:35:46;9.18;;;4.03;;
54743;SDS011;40639;53.170;6.728;2023-03-22T13:38:19;8.25;;;3.78;;
54743;SDS011;40639;53.170;6.728;2023-03-22T13:41:08;7.85;;;4.13;;
54743;SDS011;40639;53.170;6.728;2023-03-22T13:48:39;8.68;;;4.30;;
54743;SDS011;40639;53.170;6.728;2023-03-22T13:51:48;7.53;;;4.10;;
54743;SDS011;40639;53.170;6.728;2023-03-22T13:59:12;6.88;;;3.50;;
54743;SDS011;40639;53.170;6.728;2023-03-22T14:01:41;5.82;;;3.45;;
54743;SDS011;40639;53.170;6.728;2023-03-22T14:04:10;6.03;;;3.75;;
54743;SDS011;40639;53.170;6.728;2023-03-22T14:06:47;7.35;;;3.22;;
54743;SDS011;40639;53.170;6.728;2023-03-22T14:09:30;9.07;;;3.55;;
54743;SDS011;40639;53.170;6.728;2023-03-22T14:12:06;6.22;;;3.30;;
54743;SDS011;40639;53.170;6.728;2023-03-22T14:14:39;8.38;;;3.90;;
54743;SDS011;40639;53.170;6.728;2023-03-22T14:19:39;9.43;;;3.90;;
54743;SDS011;40639;53.170;6.728;2023-03-22T14:22:09;7.85;;;3.75;;
54743;SDS011;40639;53.170;6.728;2023-03-22T14:24:38;6.35;;;4.32;;
54743;SDS011;40639;53.170;6.728;2023-03-22T14:27:05;7.32;;;3.47;;
54743;SDS011;40639;53.170;6.728;2023-03-22T14:29:42;8.25;;;4.03;;
54743;SDS011;40639;53.170;6.728;2023-03-22T14:32:12;6.75;;;3.90;;
54743;SDS011;40639;53.170;6.728;2023-03-22T14:34:39;9.98;;;3.85;;
54743;SDS011;40639;53.170;6.728;2023-03-22T14:37:06;7.88;;;4.57;;
54743;SDS011;40639;53.170;6.728;2023-03-22T14:39:37;7.10;;;3.92;;
54743;SDS011;40639;53.170;6.728;2023-03-22T14:42:05;9.77;;;4.50;;
54743;SDS011;40639;53.170;6.728;2023-03-22T14:44:40;7.35;;;4.32;;
54743;SDS011;40639;53.170;6.728;2023-03-22T14:47:26;8.63;;;4.20;;
54743;SDS011;40639;53.170;6.728;2023-03-22T14:49:57;9.13;;;4.13;;
54743;SDS011;40639;53.170;6.728;2023-03-22T14:52:28;7.95;;;4.13;;
54743;SDS011;40639;53.170;6.728;2023-03-22T14:54:57;10.00;;;4.35;;
54743;SDS011;40639;53.170;6.728;2023-03-22T14:57:44;8.35;;;4.43;;
54743;SDS011;40639;53.170;6.728;2023-03-22T15:00:12;9.48;;;4.47;;
54743;SDS011;40639;53.170;6.728;2023-03-22T15:02:45;9.95;;;5.30;;
54743;SDS011;40639;53.170;6.728;2023-03-22T15:05:17;9.95;;;4.32;;
54743;SDS011;40639;53.170;6.728;2023-03-22T15:07:45;9.45;;;5.15;;
54743;SDS011;40639;53.170;6.728;2023-03-22T15:10:12;8.50;;;4.80;;
54743;SDS011;40639;53.170;6.728;2023-03-22T15:12:39;8.30;;;4.43;;
54743;SDS011;40639;53.170;6.728;2023-03-22T15:15:06;7.03;;;4.57;;
54743;SDS011;40639;53.170;6.728;2023-03-22T15:17:32;12.98;;;4.90;;
54743;SDS011;40639;53.170;6.728;2023-03-22T15:20:01;7.55;;;4.47;;
54743;SDS011;40639;53.170;6.728;2023-03-22T15:22:30;9.40;;;4.68;;
54743;SDS011;40639;53.170;6.728;2023-03-22T15:25:00;9.32;;;4.45;;
54743;SDS011;40639;53.170;6.728;2023-03-22T15:27:29;9.40;;;4.15;;
54743;SDS011;40639;53.170;6.728;2023-03-22T15:29:56;7.10;;;4.40;;
54743;SDS011;40639;53.170;6.728;2023-03-22T15:32:23;10.20;;;3.92;;
54743;SDS011;40639;53.170;6.728;2023-03-22T15:34:51;7.68;;;4.22;;
54743;SDS011;40639;53.170;6.728;2023-03-22T15:37:28;9.20;;;4.68;;
54743;SDS011;40639;53.170;6.728;2023-03-22T15:39:55;10.73;;;4.85;;
54743;SDS011;40639;53.170;6.728;2023-03-22T15:44:58;6.63;;;4.35;;
54743;SDS011;40639;53.170;6.728;2023-03-22T15:47:42;8.82;;;4.95;;
54743;SDS011;40639;53.170;6.728;2023-03-22T15:50:09;7.53;;;5.00;;
54743;SDS011;40639;53.170;6.728;2023-03-22T15:52:35;9.13;;;4.78;;
54743;SDS011;40639;53.170;6.728;2023-03-22T15:55:10;8.13;;;4.22;;
54743;SDS011;40639;53.170;6.728;2023-03-22T16:00:05;9.18;;;5.07;;
54743;SDS011;40639;53.170;6.728;2023-03-22T16:02:35;8.20;;;4.50;;
54743;SDS011;40639;53.170;6.728;2023-03-22T16:05:07;7.50;;;4.32;;
54743;SDS011;40639;53.170;6.728;2023-03-22T16:07:35;9.00;;;4.63;;
54743;SDS011;40639;53.170;6.728;2023-03-22T16:10:02;8.30;;;4.45;;
54743;SDS011;40639;53.170;6.728;2023-03-22T16:12:28;7.95;;;4.25;;
54743;SDS011;40639;53.170;6.728;2023-03-22T16:14:54;7.20;;;4.90;;
54743;SDS011;40639;53.170;6.728;2023-03-22T16:17:22;9.65;;;4.70;;
54743;SDS011;40639;53.170;6.728;2023-03-22T16:19:49;9.63;;;4.93;;
54743;SDS011;40639;53.170;6.728;2023-03-22T16:22:16;8.10;;;4.43;;
54743;SDS011;40639;53.170;6.728;2023-03-22T16:24:42;10.45;;;4.70;;
54743;SDS011;40639;53.170;6.728;2023-03-22T16:27:12;8.88;;;4.60;;
54743;SDS011;40639;53.170;6.728;2023-03-22T16:29:39;10.38;;;4.53;;
54743;SDS011;40639;53.170;6.728;2023-03-22T16:32:09;6.63;;;4.25;;